ヌーク の空港の天気 - METARとTAF

ヌーク空港 ( BGGH / GOH ) - グリーンランド ヌーク
飛行場実況気象(Metar)
観測時間04/27 02:50 WGST (04/27 04:50 UTC)
風向・風速南南東 12m/s
視程-
天気現象弱いしゅう雨
全天を覆う雲 雲底高度 850m
気温1℃
湿度60%
気圧1012hPa
METARBGGH 270450Z AUTO 16024KT 7000NDV -SHRA OVC028/// 01/M06 Q1012
過去の天気等 Google飛行場航空写真 Wunderground天気予報

過去48時間のMETAR

飛行場予報(TAF)
発表時間: 4/26 22:02 WGST (4/27 00:02 UTC)
予報対象時間: 26日22時 WGST ~ 26日23時 WGST
風向・風速南 6m/s
視程10km以上
全天の8割程度の雲 雲底高度 910m
26日22時 WGST ~ 26日23時 WGST に一時的に
全天の8割程度の雲 雲底高度 1,520m
TAF AMD BGGH 270002Z 2700/2701 18012KT 9999 BKN030
TEMPO 2700/2701 BKN050